createdAt,value
2024-05-09T00:00:46.180Z,101.40
2024-05-09T00:03:13.894Z,80.82
2024-05-09T00:05:42.254Z,96.93
2024-05-09T00:08:11.285Z,92.22
2024-05-09T00:10:40.774Z,104.78
2024-05-09T00:13:09.952Z,82.70
2024-05-09T00:15:38.030Z,97.65
2024-05-09T00:18:07.398Z,109.47
2024-05-09T00:20:39.309Z,96.95
2024-05-09T00:23:12.884Z,70.15
2024-05-09T00:25:44.737Z,47.95
2024-05-09T00:28:13.043Z,113.55
2024-05-09T00:30:49.836Z,100.47
2024-05-09T00:33:17.387Z,106.03
2024-05-09T00:35:44.935Z,91.97
2024-05-09T00:38:12.381Z,102.93
2024-05-09T00:40:42.517Z,98.10
2024-05-09T00:43:13.573Z,108.38
2024-05-09T00:45:42.378Z,106.53
2024-05-09T00:48:14.212Z,95.50
2024-05-09T00:50:45.819Z,80.70
2024-05-09T00:53:15.928Z,77.88
2024-05-09T00:55:44.047Z,75.80
2024-05-09T00:58:14.991Z,72.28
2024-05-09T01:00:42.664Z,48.28
2024-05-09T01:03:12.378Z,73.93
2024-05-09T01:05:41.942Z,59.90
2024-05-09T01:08:10.993Z,42.35
2024-05-09T01:10:39.497Z,29.20
2024-05-09T01:13:08.223Z,40.25
2024-05-09T01:15:36.089Z,40.40
2024-05-09T01:18:07.998Z,38.53
2024-05-09T01:20:41.615Z,60.70
2024-05-09T01:23:12.123Z,85.32
2024-05-09T01:25:39.995Z,95.40
2024-05-09T01:28:07.908Z,103.50
2024-05-09T01:30:37.318Z,115.35
2024-05-09T01:33:10.795Z,128.50
2024-05-09T01:35:42.247Z,107.82
2024-05-09T01:38:14.008Z,88.97
2024-05-09T01:40:41.921Z,57.28
2024-05-09T01:43:10.901Z,111.68
2024-05-09T01:45:41.518Z,63.95
2024-05-09T01:48:10.751Z,64.55
2024-05-09T01:50:42.001Z,64.72
2024-05-09T01:53:12.647Z,71.38
2024-05-09T01:55:40.623Z,70.10
2024-05-09T01:58:09.109Z,71.65
2024-05-09T02:00:40.626Z,132.70
2024-05-09T02:03:14.102Z,126.78
2024-05-09T02:05:45.601Z,215.15
2024-05-09T02:08:18.597Z,236.43
2024-05-09T02:10:48.201Z,175.85
2024-05-09T02:13:16.619Z,206.95
2024-05-09T02:15:44.620Z,186.63
2024-05-09T02:18:12.874Z,119.05
2024-05-09T02:20:42.290Z,114.45
2024-05-09T02:23:10.645Z,110.13
2024-05-09T02:25:47.658Z,101.45
2024-05-09T02:28:14.986Z,103.63
2024-05-09T02:30:42.818Z,58.78
2024-05-09T02:33:12.854Z,77.85
2024-05-09T02:35:43.447Z,116.35
2024-05-09T02:38:12.086Z,137.13
2024-05-09T02:40:40.577Z,158.40
2024-05-09T02:43:10.583Z,112.18
2024-05-09T02:45:39.942Z,198.52
2024-05-09T02:48:10.948Z,237.18
2024-05-09T02:50:41.204Z,183.25
2024-05-09T02:53:09.993Z,235.50
2024-05-09T02:55:38.497Z,157.23
2024-05-09T02:58:07.827Z,226.07
2024-05-09T03:00:39.568Z,216.90
2024-05-09T03:03:12.097Z,229.70
2024-05-09T03:05:42.233Z,191.98
2024-05-09T03:08:10.068Z,227.95
2024-05-09T03:10:38.976Z,233.15
2024-05-09T03:13:15.445Z,229.95
2024-05-09T03:15:44.842Z,235.90
2024-05-09T03:18:13.088Z,185.25
2024-05-09T03:20:40.900Z,202.45
2024-05-09T03:23:10.067Z,231.52
2024-05-09T03:25:38.857Z,203.45
2024-05-09T03:28:06.791Z,179.18
2024-05-09T03:30:40.713Z,211.02
2024-05-09T03:33:19.429Z,233.65
2024-05-09T03:35:49.445Z,219.20
2024-05-09T03:38:17.339Z,231.90
2024-05-09T03:40:49.925Z,239.88
2024-05-09T03:43:19.404Z,210.27
2024-05-09T03:45:48.976Z,206.85
2024-05-09T03:48:17.016Z,237.30
2024-05-09T03:50:44.908Z,242.80
2024-05-09T03:53:13.770Z,227.50
2024-05-09T03:55:41.826Z,199.68
2024-05-09T03:58:09.801Z,234.90
2024-05-09T04:00:39.445Z,185.38
2024-05-09T04:03:11.150Z,191.38
2024-05-09T04:05:42.679Z,156.25
2024-05-09T04:08:11.328Z,218.45
2024-05-09T04:10:39.197Z,184.57
2024-05-09T04:13:06.598Z,156.40
2024-05-09T04:15:33.972Z,232.10
2024-05-09T04:18:02.152Z,185.05
2024-05-09T04:20:37.591Z,209.27
2024-05-09T04:23:10.558Z,191.75
2024-05-09T04:25:53.565Z,213.77
2024-05-09T04:28:21.145Z,232.60
2024-05-09T04:30:48.613Z,184.52
2024-05-09T04:33:16.103Z,108.55
2024-05-09T04:35:44.343Z,158.27
2024-05-09T04:38:15.970Z,73.30
2024-05-09T04:40:43.887Z,152.57
2024-05-09T04:43:16.415Z,84.40
2024-05-09T04:45:43.805Z,180.77
2024-05-09T04:48:11.696Z,100.88
2024-05-09T04:50:39.985Z,82.25
2024-05-09T04:53:15.521Z,74.13
2024-05-09T04:55:43.585Z,113.53
2024-05-09T04:58:12.094Z,99.60
2024-05-09T05:00:40.932Z,157.10
2024-05-09T05:03:13.632Z,70.90
2024-05-09T05:05:45.471Z,65.32
2024-05-09T05:08:14.897Z,59.28
2024-05-09T05:10:43.488Z,101.70
2024-05-09T05:13:24.778Z,53.30
2024-05-09T05:15:56.816Z,87.05
2024-05-09T05:20:55.297Z,109.57
2024-05-09T05:23:23.668Z,56.35
2024-05-09T05:25:55.207Z,52.75
2024-05-09T05:28:23.304Z,79.63
2024-05-09T05:30:50.926Z,51.13
2024-05-09T05:33:19.229Z,58.28
2024-05-09T05:35:47.417Z,57.58
2024-05-09T05:38:15.511Z,119.13
2024-05-09T05:40:43.188Z,57.53
2024-05-09T05:43:17.424Z,113.63
2024-05-09T05:45:45.418Z,53.10
2024-05-09T05:48:14.290Z,54.33
2024-05-09T05:50:42.256Z,58.95
2024-05-09T05:53:10.683Z,106.10
2024-05-09T05:55:42.187Z,47.53
2024-05-09T05:58:15.107Z,103.20
2024-05-09T06:00:43.171Z,97.80
2024-05-09T06:03:12.673Z,76.53
2024-05-09T06:05:41.143Z,93.03
2024-05-09T06:08:09.378Z,94.32
2024-05-09T06:10:39.867Z,75.75
2024-05-09T06:13:13.007Z,112.82
2024-05-09T06:15:41.632Z,87.03
2024-05-09T06:18:11.004Z,90.65
2024-05-09T06:20:40.573Z,107.85
2024-05-09T06:23:09.512Z,91.30
2024-05-09T06:25:38.040Z,64.75
2024-05-09T06:28:06.152Z,66.28
2024-05-09T06:30:38.975Z,83.18
2024-05-09T06:33:12.281Z,87.32
2024-05-09T06:35:41.730Z,60.15
2024-05-09T06:38:11.176Z,41.33
2024-05-09T06:40:42.798Z,34.67
2024-05-09T06:43:15.562Z,34.95
2024-05-09T06:45:46.315Z,85.20
2024-05-09T06:48:13.986Z,79.38
2024-05-09T06:50:42.201Z,43.72
2024-05-09T06:53:09.764Z,36.50
2024-05-09T06:55:38.091Z,63.95
2024-05-09T06:58:12.245Z,78.70
2024-05-09T07:00:41.662Z,78.05
2024-05-09T07:03:16.903Z,79.07
2024-05-09T07:05:47.480Z,28.42
2024-05-09T07:08:16.508Z,38.83
2024-05-09T07:10:44.723Z,33.20
2024-05-09T07:13:13.934Z,37.65
2024-05-09T07:15:42.288Z,30.80
2024-05-09T07:18:16.692Z,30.90
2024-05-09T07:20:46.449Z,46.05
2024-05-09T07:23:14.321Z,32.40
2024-05-09T07:25:42.315Z,32.88
2024-05-09T07:28:17.320Z,41.17
2024-05-09T07:30:46.011Z,86.85
2024-05-09T07:33:22.749Z,61.85
2024-05-09T07:35:51.614Z,205.95
2024-05-09T07:38:19.144Z,137.35
2024-05-09T07:40:46.908Z,114.65
2024-05-09T07:43:15.079Z,102.28
2024-05-09T07:45:51.350Z,68.25
2024-05-09T07:53:39.944Z,87.97
2024-05-09T07:56:12.545Z,23.33
2024-05-09T07:58:40.370Z,42.05
2024-05-09T08:01:07.856Z,70.93
2024-05-09T08:03:35.694Z,16.90
2024-05-09T08:06:03.091Z,26.63
2024-05-09T08:08:30.409Z,11.90
2024-05-09T08:10:57.752Z,40.17
2024-05-09T08:13:25.997Z,17.35
2024-05-09T08:15:53.362Z,9.73
2024-05-09T08:18:20.812Z,8.55
2024-05-09T08:20:50.021Z,9.38
2024-05-09T08:23:18.120Z,10.13
2024-05-09T08:25:45.560Z,6.75
2024-05-09T08:28:13.252Z,6.47
2024-05-09T08:30:40.944Z,24.60
2024-05-09T08:33:08.525Z,9.43
2024-05-09T08:35:36.673Z,22.92
2024-05-09T08:38:04.830Z,20.58
2024-05-09T08:40:35.858Z,12.68
2024-05-09T08:43:12.735Z,16.73
2024-05-09T08:45:45.224Z,32.25
2024-05-09T08:48:15.631Z,23.48
2024-05-09T08:50:45.237Z,8.30
2024-05-09T08:53:15.192Z,10.50
2024-05-09T08:55:44.222Z,10.32
2024-05-09T08:58:19.918Z,9.50
2024-05-09T09:00:48.627Z,7.25
2024-05-09T09:03:19.391Z,8.07
2024-05-09T09:06:11.860Z,14.73
2024-05-09T09:08:39.895Z,12.30
2024-05-09T09:11:07.356Z,11.25
2024-05-09T09:13:34.783Z,11.77
2024-05-09T09:16:03.243Z,12.25
2024-05-09T09:18:31.094Z,12.52
2024-05-09T09:20:58.938Z,12.70
2024-05-09T09:23:30.485Z,9.75
2024-05-09T09:26:01.741Z,14.60
2024-05-09T09:28:30.142Z,9.32
2024-05-09T09:31:05.148Z,9.57
2024-05-09T09:33:33.322Z,16.88
2024-05-09T09:36:06.326Z,35.70
2024-05-09T09:38:37.745Z,49.13
2024-05-09T09:41:08.810Z,56.47
2024-05-09T09:43:37.119Z,78.53
2024-05-09T09:46:07.219Z,41.75
2024-05-09T09:48:37.041Z,80.15
2024-05-09T09:51:05.817Z,78.47
2024-05-09T09:53:35.274Z,95.15
2024-05-09T09:56:03.923Z,98.25
2024-05-09T09:58:35.127Z,94.68
2024-05-09T10:01:02.794Z,106.70
2024-05-09T10:03:30.395Z,140.80
2024-05-09T10:05:58.648Z,148.20
2024-05-09T10:08:26.426Z,90.03
2024-05-09T10:10:54.294Z,75.82
2024-05-09T10:13:32.635Z,99.05
2024-05-09T10:16:10.992Z,119.15
2024-05-09T10:18:41.057Z,106.97
2024-05-09T10:21:21.562Z,142.02
2024-05-09T10:24:05.800Z,180.77
2024-05-09T10:26:39.033Z,173.27
2024-05-09T10:29:19.911Z,121.80
2024-05-09T10:31:48.428Z,188.27
2024-05-09T10:34:25.174Z,158.88
2024-05-09T10:36:56.063Z,177.25
2024-05-09T10:39:25.239Z,151.73
2024-05-09T10:41:52.646Z,116.25
2024-05-09T10:44:22.451Z,113.38
2024-05-09T10:46:50.683Z,93.82
2024-05-09T10:49:18.232Z,103.82
2024-05-09T10:51:47.563Z,104.85
2024-05-09T10:54:14.977Z,177.07
2024-05-09T10:56:42.381Z,178.93
2024-05-09T10:59:09.744Z,166.00
2024-05-09T11:01:37.344Z,157.30
2024-05-09T11:04:05.565Z,183.82
2024-05-09T11:06:35.347Z,187.25
2024-05-09T11:09:03.366Z,44.95
2024-05-09T11:11:30.905Z,166.45
2024-05-09T11:13:58.267Z,195.15
2024-05-09T11:16:26.256Z,183.90
2024-05-09T11:18:56.229Z,63.15
2024-05-09T11:21:24.907Z,151.95
2024-05-09T11:23:52.588Z,141.63
2024-05-09T11:26:21.861Z,182.32
2024-05-09T11:28:51.055Z,129.23
2024-05-09T11:31:19.175Z,207.20
2024-05-09T11:33:47.292Z,151.40
2024-05-09T11:36:15.543Z,170.05
2024-05-09T11:38:43.236Z,204.90
2024-05-09T11:41:17.822Z,139.60
2024-05-09T11:43:45.213Z,161.57
2024-05-09T11:46:12.752Z,36.67
2024-05-09T11:48:40.505Z,212.13
2024-05-09T11:51:08.077Z,226.07
2024-05-09T11:53:35.457Z,215.20
2024-05-09T11:56:03.017Z,208.98
2024-05-09T11:58:34.895Z,82.43
2024-05-09T12:01:02.770Z,105.70
2024-05-09T12:03:30.382Z,54.30
2024-05-09T12:05:58.054Z,72.35
2024-05-09T12:08:25.567Z,163.88
2024-05-09T12:10:53.444Z,141.82
2024-05-09T12:13:21.100Z,73.07
2024-05-09T12:15:48.529Z,100.07
2024-05-09T12:18:15.891Z,218.85
2024-05-09T12:20:43.548Z,123.32
2024-05-09T12:23:11.164Z,209.73
2024-05-09T12:25:39.913Z,154.52
2024-05-09T12:28:09.410Z,61.85
2024-05-09T12:30:40.426Z,95.05
2024-05-09T12:33:13.385Z,12.25
2024-05-09T12:35:44.239Z,11.95
2024-05-09T12:38:15.508Z,10.05
2024-05-09T12:40:43.360Z,89.47
2024-05-09T12:43:11.742Z,37.08
2024-05-09T12:45:40.267Z,16.73
2024-05-09T12:48:12.446Z,24.35
2024-05-09T12:53:08.358Z,23.80
2024-05-09T12:55:44.195Z,28.90
2024-05-09T12:58:22.329Z,36.45
2024-05-09T13:00:51.677Z,27.15
2024-05-09T13:03:19.566Z,27.67
2024-05-09T13:05:47.181Z,18.15
2024-05-09T13:08:14.955Z,5.25
2024-05-09T13:10:42.669Z,6.30
2024-05-09T13:13:11.359Z,4.82
2024-05-09T13:15:39.535Z,6.40
2024-05-09T13:18:07.357Z,7.22
2024-05-09T13:20:37.006Z,10.27
2024-05-09T13:23:07.284Z,13.75
2024-05-09T13:25:36.166Z,24.67
2024-05-09T13:28:04.982Z,69.18
2024-05-09T13:30:39.981Z,79.35
2024-05-09T13:33:14.072Z,63.53
2024-05-09T13:38:17.730Z,42.28
2024-05-09T13:40:45.357Z,23.35
2024-05-09T13:43:12.956Z,17.40
2024-05-09T13:45:40.612Z,49.28
2024-05-09T13:48:10.222Z,41.75
2024-05-09T13:50:39.358Z,20.13
2024-05-09T13:53:07.936Z,62.97
2024-05-09T13:55:38.731Z,51.35
2024-05-09T13:58:07.185Z,27.48
2024-05-09T14:00:44.286Z,44.17
2024-05-09T14:03:20.405Z,82.32
2024-05-09T14:05:51.283Z,31.85
2024-05-09T14:08:20.419Z,73.05
2024-05-09T14:10:49.180Z,89.47
2024-05-09T14:13:17.102Z,22.70
2024-05-09T14:15:46.064Z,38.00
2024-05-09T14:18:14.565Z,21.80
2024-05-09T14:20:42.954Z,39.47
2024-05-09T14:23:10.547Z,90.07
2024-05-09T14:25:42.300Z,88.05
2024-05-09T14:28:12.855Z,49.13
2024-05-09T14:30:41.612Z,66.05
2024-05-09T14:33:09.685Z,21.98
2024-05-09T14:35:38.969Z,51.65
2024-05-09T14:38:08.181Z,47.67
2024-05-09T14:40:42.197Z,28.05
2024-05-09T14:43:15.404Z,28.88
2024-05-09T14:45:44.405Z,38.33
2024-05-09T14:48:14.355Z,33.78
2024-05-09T14:50:42.501Z,22.75
2024-05-09T14:53:13.901Z,28.95
2024-05-09T14:55:43.375Z,11.80
2024-05-09T14:58:13.471Z,23.10
2024-05-09T15:00:46.433Z,54.33
2024-05-09T15:03:18.560Z,33.45
2024-05-09T15:05:47.600Z,24.42
2024-05-09T15:08:16.810Z,38.45
2024-05-09T15:10:44.416Z,14.02
2024-05-09T15:13:14.306Z,23.00
2024-05-09T15:15:43.880Z,24.90
2024-05-09T15:18:11.544Z,23.73
2024-05-09T15:20:40.952Z,19.30
2024-05-09T15:23:08.561Z,21.33
2024-05-09T15:25:37.145Z,29.85
2024-05-09T15:28:08.146Z,49.55
2024-05-09T15:30:36.589Z,62.03
2024-05-09T15:33:04.882Z,57.83
2024-05-09T15:35:33.499Z,42.55
2024-05-09T15:38:03.361Z,30.58
2024-05-09T15:40:37.989Z,130.70
2024-05-09T15:43:10.605Z,152.00
2024-05-09T15:45:40.274Z,123.65
2024-05-09T15:48:11.297Z,106.05
2024-05-09T15:50:41.526Z,58.85
2024-05-09T15:53:12.175Z,65.90
2024-05-09T15:55:40.337Z,92.85
2024-05-09T15:58:08.260Z,117.70
2024-05-09T16:00:39.839Z,92.63
2024-05-09T16:03:11.091Z,70.18
2024-05-09T16:05:39.761Z,62.08
2024-05-09T16:08:08.691Z,39.88
2024-05-09T16:10:38.217Z,46.85
2024-05-09T16:13:06.734Z,97.75
2024-05-09T16:15:34.422Z,81.78
2024-05-09T16:18:02.134Z,12.65
2024-05-09T16:20:38.787Z,12.90
2024-05-09T16:23:09.300Z,16.02
2024-05-09T16:25:37.309Z,12.40
2024-05-09T16:28:08.817Z,23.88
2024-05-09T16:30:39.135Z,26.95
2024-05-09T16:33:07.127Z,18.42
2024-05-09T16:35:35.339Z,53.72
2024-05-09T16:38:04.904Z,37.78
2024-05-09T16:40:38.606Z,36.22
2024-05-09T16:43:10.260Z,15.02
2024-05-09T16:45:43.801Z,20.02
2024-05-09T16:48:12.002Z,61.65
2024-05-09T16:50:39.437Z,34.42
2024-05-09T16:53:07.313Z,29.42
2024-05-09T16:55:36.073Z,57.33
2024-05-09T16:58:04.776Z,87.72
2024-05-09T17:00:40.244Z,121.93
2024-05-09T17:03:13.188Z,150.15
2024-05-09T17:05:42.395Z,228.90
2024-05-09T17:08:10.411Z,176.93
2024-05-09T17:10:39.050Z,81.28
2024-05-09T17:13:08.402Z,72.50
2024-05-09T17:15:37.265Z,57.28
2024-05-09T17:18:07.219Z,55.88
2024-05-09T17:20:37.123Z,6.40
2024-05-09T17:23:13.579Z,11.13
2024-05-09T17:25:42.416Z,8.63
2024-05-09T17:28:10.691Z,7.43
2024-05-09T17:30:40.112Z,12.25
2024-05-09T17:33:10.282Z,5.43
2024-05-09T17:35:39.002Z,9.18
2024-05-09T17:38:09.657Z,6.15
2024-05-09T17:40:38.511Z,9.20
2024-05-09T17:43:09.717Z,8.75
2024-05-09T17:45:40.563Z,6.72
2024-05-09T17:48:10.702Z,8.23
2024-05-09T17:50:39.744Z,8.65
2024-05-09T17:53:07.550Z,11.75
2024-05-09T17:55:35.522Z,8.40
2024-05-09T17:58:03.905Z,10.10
2024-05-09T18:00:38.359Z,39.83
2024-05-09T18:03:12.429Z,24.58
2024-05-09T18:05:41.591Z,13.77
2024-05-09T18:08:09.312Z,8.98
2024-05-09T18:10:39.374Z,7.53
2024-05-09T18:13:12.302Z,6.60
2024-05-09T18:15:40.463Z,8.93
2024-05-09T18:18:09.304Z,7.18
2024-05-09T18:20:42.993Z,7.85
2024-05-09T18:23:15.848Z,9.25
2024-05-09T18:25:44.702Z,8.30
2024-05-09T18:28:12.241Z,8.23
2024-05-09T18:30:40.983Z,9.23
2024-05-09T18:33:11.571Z,14.35
2024-05-09T18:35:39.450Z,11.35
2024-05-09T18:38:06.962Z,10.43
2024-05-09T18:40:36.956Z,11.90
2024-05-09T18:43:08.039Z,10.45
2024-05-09T18:45:40.279Z,7.60
2024-05-09T18:48:10.272Z,15.05
2024-05-09T18:50:40.346Z,10.27
2024-05-09T18:53:13.123Z,15.57
2024-05-09T18:55:42.532Z,11.95
2024-05-09T18:58:10.108Z,21.17
2024-05-09T19:00:40.226Z,15.77
2024-05-09T19:05:45.362Z,10.40
2024-05-09T19:08:15.308Z,11.73
2024-05-09T19:10:43.685Z,18.20
2024-05-09T19:13:13.347Z,11.23
2024-05-09T19:15:43.272Z,13.18
2024-05-09T19:18:13.698Z,8.57
2024-05-09T19:20:41.642Z,9.57
2024-05-09T19:23:09.227Z,8.20
2024-05-09T19:25:36.771Z,11.73
2024-05-09T19:28:05.466Z,9.23
2024-05-09T19:30:38.936Z,10.27
2024-05-09T19:33:10.365Z,9.77
2024-05-09T19:35:39.286Z,13.43
2024-05-09T19:38:06.961Z,8.52
2024-05-09T19:40:35.463Z,10.13
2024-05-09T19:43:05.363Z,9.25
2024-05-09T19:45:35.314Z,8.90
2024-05-09T19:48:04.339Z,10.10
2024-05-09T19:50:39.978Z,12.73
2024-05-09T19:53:11.488Z,9.45
2024-05-09T19:55:39.554Z,11.52
2024-05-09T19:58:07.854Z,11.75
2024-05-09T20:00:39.094Z,11.68
2024-05-09T20:03:09.059Z,10.23
2024-05-09T20:05:37.394Z,10.02
2024-05-09T20:08:06.081Z,11.70
2024-05-09T20:10:35.644Z,9.77
2024-05-09T20:13:08.430Z,9.00
2024-05-09T20:15:38.083Z,12.88
2024-05-09T20:18:06.928Z,11.32
2024-05-09T20:20:39.730Z,11.65
2024-05-09T20:23:13.892Z,8.93
2024-05-09T20:25:45.042Z,7.88
2024-05-09T20:28:12.614Z,9.10
2024-05-09T20:30:40.216Z,10.80
2024-05-09T20:33:10.023Z,12.65
2024-05-09T20:35:37.784Z,10.68
2024-05-09T20:38:05.465Z,8.73
2024-05-09T20:40:37.071Z,11.65
2024-05-09T20:43:08.252Z,10.13
2024-05-09T20:45:36.280Z,13.20
2024-05-09T20:48:04.093Z,10.05
2024-05-09T20:50:38.570Z,11.85
2024-05-09T20:53:11.191Z,10.60
2024-05-09T20:55:39.721Z,8.10
2024-05-09T20:58:07.173Z,9.55
2024-05-09T21:00:39.775Z,8.57
2024-05-09T21:03:11.478Z,11.23
2024-05-09T21:05:39.998Z,11.43
2024-05-09T21:08:08.064Z,11.20
2024-05-09T21:10:36.967Z,9.35
2024-05-09T21:13:05.653Z,8.55
2024-05-09T21:15:34.071Z,20.48
2024-05-09T21:18:01.776Z,11.55
2024-05-09T21:20:32.969Z,13.27
2024-05-09T21:23:02.243Z,12.73
2024-05-09T21:25:31.154Z,10.88
2024-05-09T21:27:58.820Z,12.02
2024-05-09T21:30:37.048Z,11.15
2024-05-09T21:33:10.842Z,11.48
2024-05-09T21:35:39.806Z,12.05
2024-05-09T21:38:07.941Z,14.93
2024-05-09T21:40:36.896Z,14.52
2024-05-09T21:43:06.591Z,10.32
2024-05-09T21:45:34.826Z,12.50
2024-05-09T21:48:06.659Z,12.35
2024-05-09T21:50:40.196Z,14.30
2024-05-09T21:53:13.566Z,13.75
2024-05-09T21:55:44.842Z,11.57
2024-05-09T21:58:13.795Z,12.52
2024-05-09T22:00:46.608Z,12.60
2024-05-09T22:03:14.621Z,12.75
2024-05-09T22:05:44.874Z,10.65
2024-05-09T22:08:12.933Z,13.35
2024-05-09T22:10:40.281Z,15.23
2024-05-09T22:13:08.836Z,11.68
2024-05-09T22:15:38.464Z,12.65
2024-05-09T22:18:08.645Z,13.07
2024-05-09T22:20:39.288Z,17.80
2024-05-09T22:23:08.568Z,14.10
2024-05-09T22:25:36.996Z,17.33
2024-05-09T22:28:05.601Z,13.85
2024-05-09T22:30:37.299Z,12.60
2024-05-09T22:33:09.537Z,12.93
2024-05-09T22:35:38.498Z,14.30
2024-05-09T22:38:06.663Z,11.45
2024-05-09T22:40:44.840Z,13.63
2024-05-09T22:43:21.379Z,11.70
2024-05-09T22:45:50.846Z,15.45
2024-05-09T22:48:19.261Z,12.55
2024-05-09T22:50:46.893Z,14.65
2024-05-09T22:53:14.347Z,13.85
2024-05-09T22:55:42.075Z,13.13
2024-05-09T22:58:09.575Z,14.05
2024-05-09T23:00:37.227Z,13.77
2024-05-09T23:03:04.852Z,15.27
2024-05-09T23:05:32.847Z,13.05
2024-05-09T23:08:02.095Z,14.02
2024-05-09T23:10:35.746Z,15.27
2024-05-09T23:13:06.604Z,17.38
2024-05-09T23:15:34.623Z,12.13
2024-05-09T23:18:02.268Z,15.45
2024-05-09T23:20:36.717Z,12.77
2024-05-09T23:23:11.402Z,11.93
2024-05-09T23:25:41.974Z,13.32
2024-05-09T23:28:09.951Z,13.57
2024-05-09T23:30:40.258Z,11.75
2024-05-09T23:33:12.378Z,13.35
2024-05-09T23:35:42.546Z,14.38
2024-05-09T23:38:10.071Z,13.45
2024-05-09T23:40:40.246Z,11.80
2024-05-09T23:43:10.743Z,12.75
2024-05-09T23:45:39.009Z,14.43
2024-05-09T23:48:07.131Z,13.98
2024-05-09T23:50:37.743Z,13.07
2024-05-09T23:53:08.544Z,13.35
2024-05-09T23:55:37.413Z,12.43
2024-05-09T23:58:06.791Z,15.90
